createdAt,value
2023-03-13T00:01:47.733Z,0.19
2023-03-13T00:04:15.998Z,0.23
2023-03-13T00:06:44.313Z,0.25
2023-03-13T00:09:15.471Z,0.27
2023-03-13T00:11:45.886Z,0.26
2023-03-13T00:14:15.518Z,0.25
2023-03-13T00:16:43.788Z,0.24
2023-03-13T00:19:12.358Z,0.21
2023-03-13T00:21:41.531Z,0.21
2023-03-13T00:24:11.599Z,0.21
2023-03-13T00:26:39.758Z,0.21
2023-03-13T00:29:08.015Z,0.18
2023-03-13T00:31:36.284Z,0.16
2023-03-13T00:34:05.123Z,0.15
2023-03-13T00:36:35.877Z,0.13
2023-03-13T00:39:08.138Z,0.12
2023-03-13T00:41:37.435Z,0.15
2023-03-13T00:44:07.214Z,0.21
2023-03-13T00:46:38.108Z,0.27
2023-03-13T00:49:07.096Z,0.34
2023-03-13T00:51:35.755Z,0.41
2023-03-13T00:54:05.059Z,0.47
2023-03-13T00:56:34.470Z,0.52
2023-03-13T00:59:03.005Z,0.56
2023-03-13T01:01:34.287Z,0.61
2023-03-13T01:04:07.548Z,0.66
2023-03-13T01:06:40.549Z,0.71
2023-03-13T01:09:11.833Z,0.77
2023-03-13T01:11:41.387Z,0.79
2023-03-13T01:14:13.375Z,0.80
2023-03-13T01:16:41.885Z,0.79
2023-03-13T01:19:14.263Z,0.79
2023-03-13T01:21:44.574Z,0.77
2023-03-13T01:24:13.479Z,0.75
2023-03-13T01:26:41.716Z,0.75
2023-03-13T01:29:10.013Z,0.74
2023-03-13T01:31:38.449Z,0.75
2023-03-13T01:34:10.126Z,0.76
2023-03-13T01:36:38.725Z,0.76
2023-03-13T01:39:07.057Z,0.76
2023-03-13T01:41:35.272Z,0.77
2023-03-13T01:44:04.180Z,0.79
2023-03-13T01:46:38.694Z,0.81
2023-03-13T01:49:35.368Z,0.83
2023-03-13T01:52:28.103Z,0.85
2023-03-13T01:55:19.249Z,0.87
2023-03-13T01:57:54.778Z,0.87
2023-03-13T02:00:29.335Z,0.87
2023-03-13T02:03:02.847Z,0.87
2023-03-13T02:05:31.585Z,0.88
2023-03-13T02:08:06.882Z,0.90
2023-03-13T02:10:39.918Z,0.92
2023-03-13T02:13:10.355Z,0.94
2023-03-13T02:15:41.599Z,0.95
2023-03-13T02:18:11.370Z,0.95
2023-03-13T02:20:41.203Z,0.97
2023-03-13T02:23:25.056Z,0.97
2023-03-13T02:25:54.223Z,0.98
2023-03-13T02:28:34.023Z,1.00
2023-03-13T02:31:03.808Z,1.01
2023-03-13T02:33:43.324Z,1.04
2023-03-13T02:36:18.277Z,1.09
2023-03-13T02:38:57.378Z,1.16
2023-03-13T02:41:27.055Z,1.23
2023-03-13T02:43:56.227Z,1.30
2023-03-13T02:46:24.798Z,1.35
2023-03-13T02:48:57.419Z,1.40
2023-03-13T02:51:32.265Z,1.45
2023-03-13T02:54:09.421Z,1.48
2023-03-13T02:56:49.260Z,1.53
2023-03-13T02:59:17.850Z,1.57
2023-03-13T03:01:47.140Z,1.62
2023-03-13T03:04:15.586Z,1.65
2023-03-13T03:06:43.809Z,1.67
2023-03-13T03:09:12.223Z,1.68
2023-03-13T03:11:41.231Z,1.67
2023-03-13T03:14:13.793Z,1.65
2023-03-13T03:16:45.091Z,1.62
2023-03-13T03:19:13.560Z,1.61
2023-03-13T03:21:41.721Z,1.58
2023-03-13T03:24:10.109Z,1.55
2023-03-13T03:26:38.273Z,1.49
2023-03-13T03:29:11.592Z,1.44
2023-03-13T03:31:43.891Z,1.38
2023-03-13T03:34:13.683Z,1.32
2023-03-13T03:36:42.630Z,1.27
2023-03-13T03:39:10.905Z,1.21
2023-03-13T03:41:39.437Z,1.17
2023-03-13T03:44:15.750Z,1.14
2023-03-13T03:46:58.887Z,1.12
2023-03-13T03:49:28.435Z,1.12
2023-03-13T03:51:56.548Z,1.14
2023-03-13T03:54:29.823Z,1.18
2023-03-13T03:56:59.002Z,1.23
2023-03-13T03:59:27.388Z,1.28
2023-03-13T04:01:58.615Z,1.32
2023-03-13T04:04:28.860Z,1.36
2023-03-13T04:07:04.802Z,1.41
2023-03-13T04:09:34.410Z,1.46
2023-03-13T04:12:04.682Z,1.49
2023-03-13T04:14:36.580Z,1.54
2023-03-13T04:17:07.219Z,1.58
2023-03-13T04:19:35.665Z,1.61
2023-03-13T04:22:03.904Z,1.63
2023-03-13T04:24:32.580Z,1.65
2023-03-13T04:27:02.720Z,1.68
2023-03-13T04:29:34.333Z,1.71
2023-03-13T04:32:22.354Z,1.73
2023-03-13T04:35:09.737Z,1.74
2023-03-13T04:37:53.951Z,1.76
2023-03-13T04:40:35.499Z,1.78
2023-03-13T04:43:11.097Z,1.80
2023-03-13T04:46:04.342Z,1.83
2023-03-13T04:49:10.545Z,1.88
2023-03-13T04:51:58.959Z,1.91
2023-03-13T04:54:51.289Z,1.93
2023-03-13T04:58:22.400Z,1.92
2023-03-13T05:01:08.620Z,1.88
2023-03-13T05:04:05.379Z,1.83
2023-03-13T05:06:39.731Z,1.79
2023-03-13T05:09:28.301Z,1.78
2023-03-13T05:12:19.004Z,1.81
2023-03-13T05:15:13.153Z,1.87
2023-03-13T05:17:59.957Z,1.93
2023-03-13T05:20:38.199Z,1.97
2023-03-13T05:23:23.943Z,2.03
2023-03-13T05:26:10.781Z,2.07
2023-03-13T05:28:41.865Z,2.13
2023-03-13T05:31:19.635Z,2.21
2023-03-13T05:34:11.628Z,2.29
2023-03-13T05:37:07.417Z,2.38
2023-03-13T05:39:55.638Z,2.48
2023-03-13T05:42:36.941Z,2.56
2023-03-13T05:45:25.940Z,2.66
2023-03-13T05:48:11.406Z,2.76
2023-03-13T05:51:00.112Z,2.87
2023-03-13T05:53:51.137Z,3.01
2023-03-13T05:56:35.933Z,3.15
2023-03-13T05:59:25.397Z,3.29
2023-03-13T06:02:13.369Z,3.43
2023-03-13T06:04:43.482Z,3.53
2023-03-13T06:07:11.518Z,3.59
2023-03-13T06:09:43.403Z,3.65
2023-03-13T06:12:12.631Z,3.71
2023-03-13T06:14:40.927Z,3.77
2023-03-13T06:17:38.211Z,3.87
2023-03-13T06:20:07.824Z,3.96
2023-03-13T06:22:35.756Z,4.02
2023-03-13T06:25:04.432Z,4.07
2023-03-13T06:27:35.663Z,4.11
2023-03-13T06:30:04.870Z,4.13
2023-03-13T06:32:32.915Z,4.16
2023-03-13T06:35:01.488Z,4.19
2023-03-13T06:37:30.137Z,4.23
2023-03-13T06:39:58.148Z,4.28
2023-03-13T06:42:29.227Z,4.34
2023-03-13T06:44:58.069Z,4.42
2023-03-13T06:47:27.519Z,4.47
2023-03-13T06:49:55.658Z,4.56
2023-03-13T06:52:42.861Z,4.63
2023-03-13T06:55:12.943Z,4.71
2023-03-13T06:57:41.535Z,4.82
2023-03-13T07:00:11.555Z,4.93
2023-03-13T07:02:39.494Z,5.03
2023-03-13T07:05:08.334Z,5.10
2023-03-13T07:07:36.432Z,5.18
2023-03-13T07:10:04.940Z,5.24
2023-03-13T07:12:35.369Z,5.31
2023-03-13T07:15:10.030Z,5.38
2023-03-13T07:17:40.491Z,5.48
2023-03-13T07:20:10.938Z,5.60
2023-03-13T07:22:39.096Z,5.74
2023-03-13T07:25:07.736Z,5.85
2023-03-13T07:27:35.630Z,5.99
2023-03-13T07:30:03.889Z,6.14
2023-03-13T07:32:33.341Z,6.31
2023-03-13T07:35:03.486Z,6.48
2023-03-13T07:37:31.687Z,6.64
2023-03-13T07:39:59.716Z,6.81
2023-03-13T07:42:27.628Z,6.95
2023-03-13T07:44:57.698Z,7.04
2023-03-13T07:47:25.616Z,7.15
2023-03-13T07:49:54.147Z,7.25
2023-03-13T07:52:23.173Z,7.36
2023-03-13T07:54:51.362Z,7.47
2023-03-13T07:57:19.565Z,7.60
2023-03-13T07:59:47.852Z,7.67
2023-03-13T08:02:17.128Z,7.75
2023-03-13T08:04:45.258Z,7.78
2023-03-13T08:07:13.206Z,7.78
2023-03-13T08:09:41.478Z,7.82
2023-03-13T08:12:10.257Z,7.91
2023-03-13T08:14:38.143Z,8.01
2023-03-13T08:17:08.171Z,8.06
2023-03-13T08:19:36.294Z,8.09
2023-03-13T08:22:04.161Z,8.13
2023-03-13T08:24:32.086Z,8.12
2023-03-13T08:26:59.956Z,8.13
2023-03-13T08:29:27.873Z,8.22
2023-03-13T08:31:55.878Z,8.31
2023-03-13T08:34:24.024Z,8.36
2023-03-13T08:36:52.950Z,8.37
2023-03-13T08:39:21.491Z,8.40
2023-03-13T08:41:49.941Z,8.46
2023-03-13T08:44:21.400Z,8.54
2023-03-13T08:46:49.452Z,8.62
2023-03-13T08:49:17.888Z,8.76
2023-03-13T08:51:45.989Z,8.87
2023-03-13T08:54:13.999Z,8.97
2023-03-13T08:56:43.645Z,9.10
2023-03-13T08:59:12.765Z,9.25
2023-03-13T09:01:41.194Z,9.38
2023-03-13T09:04:09.226Z,9.45
2023-03-13T09:06:38.515Z,9.46
2023-03-13T09:09:08.454Z,9.44
2023-03-13T09:11:39.508Z,9.38
2023-03-13T09:14:08.806Z,9.32
2023-03-13T09:16:36.866Z,9.28
2023-03-13T09:19:04.877Z,9.26
2023-03-13T09:21:35.313Z,9.20
2023-03-13T09:24:03.439Z,9.17
2023-03-13T09:26:31.506Z,9.16
2023-03-13T09:28:59.885Z,9.16
2023-03-13T09:31:31.192Z,9.19
2023-03-13T09:34:01.719Z,9.24
2023-03-13T09:36:35.863Z,9.31
2023-03-13T09:39:03.876Z,9.40
2023-03-13T09:42:15.015Z,9.48
2023-03-13T09:45:08.604Z,9.53
2023-03-13T09:47:55.300Z,9.65
2023-03-13T09:50:34.914Z,9.77
2023-03-13T09:53:14.914Z,9.85
2023-03-13T09:55:45.861Z,9.88
2023-03-13T09:58:34.652Z,9.89
2023-03-13T10:01:05.043Z,9.92
2023-03-13T10:03:40.712Z,9.92
2023-03-13T10:06:19.632Z,9.93
2023-03-13T10:08:47.644Z,9.94
2023-03-13T10:11:25.916Z,10.01
2023-03-13T10:14:02.949Z,10.04
2023-03-13T10:16:58.402Z,10.07
2023-03-13T10:19:37.972Z,10.09
2023-03-13T10:22:17.433Z,10.15
2023-03-13T10:24:54.885Z,10.22
2023-03-13T10:27:22.942Z,10.33
2023-03-13T10:29:51.045Z,10.44
2023-03-13T10:32:20.128Z,10.51
2023-03-13T10:35:01.163Z,10.56
2023-03-13T10:37:32.505Z,10.62
2023-03-13T10:40:29.975Z,10.71
2023-03-13T10:43:05.284Z,10.81
2023-03-13T10:45:37.794Z,10.88
2023-03-13T10:48:14.846Z,10.89
2023-03-13T10:50:50.701Z,10.83
2023-03-13T10:53:27.684Z,10.74
2023-03-13T10:56:00.696Z,10.71
2023-03-13T10:58:41.568Z,10.73
2023-03-13T11:01:40.177Z,10.81
2023-03-13T11:04:31.977Z,10.90
2023-03-13T11:07:16.555Z,10.94
2023-03-13T11:10:14.990Z,10.99
2023-03-13T11:12:51.878Z,11.02
2023-03-13T11:15:53.538Z,11.00
2023-03-13T11:18:33.030Z,10.96
2023-03-13T11:21:15.950Z,10.96
2023-03-13T11:23:54.754Z,11.03
2023-03-13T11:26:37.033Z,11.03
2023-03-13T11:29:21.275Z,11.00
2023-03-13T11:31:56.855Z,10.99
2023-03-13T11:34:47.983Z,11.00
2023-03-13T11:37:19.644Z,11.09
2023-03-13T11:39:58.551Z,11.10
2023-03-13T11:43:24.043Z,11.16
2023-03-13T11:46:27.286Z,11.19
2023-03-13T11:49:06.172Z,11.15
2023-03-13T11:51:59.489Z,11.15
2023-03-13T11:54:49.426Z,11.18
2023-03-13T11:57:35.579Z,11.26
2023-03-13T12:00:19.471Z,11.32
2023-03-13T12:03:08.440Z,11.26
2023-03-13T12:05:54.027Z,11.17
2023-03-13T12:08:46.473Z,11.20
2023-03-13T12:11:31.563Z,11.19
2023-03-13T12:14:28.465Z,11.18
2023-03-13T12:17:23.919Z,11.19
2023-03-13T12:20:20.051Z,11.17
2023-03-13T12:23:06.368Z,11.18
2023-03-13T12:26:06.080Z,11.20
2023-03-13T12:29:13.212Z,11.21
2023-03-13T12:31:49.089Z,11.26
2023-03-13T12:34:17.247Z,11.28
2023-03-13T12:36:57.158Z,11.28
2023-03-13T12:39:38.179Z,11.32
2023-03-13T12:42:10.458Z,11.35
2023-03-13T12:44:40.231Z,11.35
2023-03-13T12:47:34.539Z,11.37
2023-03-13T12:50:27.064Z,11.39
2023-03-13T12:53:23.256Z,11.39
2023-03-13T12:56:37.859Z,11.36
2023-03-13T12:59:16.572Z,11.36
2023-03-13T13:01:49.881Z,11.40
2023-03-13T13:04:22.521Z,11.47
2023-03-13T13:06:56.172Z,11.54
2023-03-13T13:09:51.724Z,11.58
2023-03-13T13:12:22.334Z,11.57
2023-03-13T13:14:50.269Z,11.53
2023-03-13T13:17:39.951Z,11.51
2023-03-13T13:20:45.270Z,11.57
2023-03-13T13:23:20.690Z,11.60
2023-03-13T13:25:50.233Z,11.62
2023-03-13T13:28:22.090Z,11.63
2023-03-13T13:30:54.536Z,11.64
2023-03-13T13:33:31.056Z,11.68
2023-03-13T13:36:08.587Z,11.70
2023-03-13T13:38:40.454Z,11.72
2023-03-13T13:41:11.649Z,11.75
2023-03-13T13:44:10.096Z,11.79
2023-03-13T13:46:57.318Z,11.82
2023-03-13T13:49:34.312Z,11.83
2023-03-13T13:52:02.533Z,11.81
2023-03-13T13:54:32.151Z,11.78
2023-03-13T13:57:09.432Z,11.75
2023-03-13T13:59:44.438Z,11.72
2023-03-13T14:02:18.941Z,11.73
2023-03-13T14:04:55.524Z,11.77
2023-03-13T14:07:52.428Z,11.78
2023-03-13T14:10:41.802Z,11.74
2023-03-13T14:13:16.658Z,11.70
2023-03-13T14:15:49.670Z,11.67
2023-03-13T14:18:33.892Z,11.67
2023-03-13T14:21:04.317Z,11.65
2023-03-13T14:23:32.903Z,11.64
2023-03-13T14:26:29.056Z,11.64
2023-03-13T14:28:59.569Z,11.61
2023-03-13T14:31:29.695Z,11.60
2023-03-13T14:34:00.889Z,11.60
2023-03-13T14:36:29.992Z,11.59
2023-03-13T14:39:00.122Z,11.58
2023-03-13T14:41:37.791Z,11.55
2023-03-13T14:44:21.337Z,11.51
2023-03-13T14:46:53.391Z,11.46
2023-03-13T14:49:26.888Z,11.41
2023-03-13T14:52:04.057Z,11.35
2023-03-13T14:54:37.445Z,11.30
2023-03-13T14:57:16.223Z,11.23
2023-03-13T14:59:44.504Z,11.18
2023-03-13T15:02:26.387Z,11.17
2023-03-13T15:05:07.554Z,11.16
2023-03-13T15:07:37.630Z,11.15
2023-03-13T15:10:19.861Z,11.14
2023-03-13T15:12:48.316Z,11.12
2023-03-13T15:15:16.495Z,11.10
2023-03-13T15:17:45.508Z,11.07
2023-03-13T15:20:15.503Z,11.04
2023-03-13T15:22:46.475Z,11.01
2023-03-13T15:25:22.857Z,10.97
2023-03-13T15:27:51.115Z,10.93
2023-03-13T15:30:23.656Z,10.87
2023-03-13T15:32:52.410Z,10.82
2023-03-13T15:35:32.904Z,10.78
2023-03-13T15:38:02.632Z,10.74
2023-03-13T15:40:33.715Z,10.69
2023-03-13T15:43:01.804Z,10.65
2023-03-13T15:45:30.533Z,10.62
2023-03-13T15:48:00.584Z,10.57
2023-03-13T15:50:31.626Z,10.52
2023-03-13T15:53:01.045Z,10.45
2023-03-13T15:55:30.145Z,10.35
2023-03-13T15:57:58.413Z,10.24
2023-03-13T16:00:30.258Z,10.13
2023-03-13T16:02:59.825Z,10.02
2023-03-13T16:05:29.431Z,9.91
2023-03-13T16:07:57.648Z,9.79
2023-03-13T16:10:28.381Z,9.68
2023-03-13T16:12:56.237Z,9.58
2023-03-13T16:15:24.610Z,9.47
2023-03-13T16:17:52.531Z,9.37
2023-03-13T16:20:23.782Z,9.28
2023-03-13T16:22:53.672Z,9.19
2023-03-13T16:25:23.162Z,9.10
2023-03-13T16:27:53.668Z,9.03
2023-03-13T16:30:26.515Z,8.96
2023-03-13T16:32:54.947Z,8.89
2023-03-13T16:35:26.790Z,8.84
2023-03-13T16:37:56.708Z,8.80
2023-03-13T16:40:30.801Z,8.77
2023-03-13T16:42:59.534Z,8.74
2023-03-13T16:45:28.318Z,8.72
2023-03-13T16:47:56.873Z,8.71
2023-03-13T16:50:38.376Z,8.69
2023-03-13T16:53:06.296Z,8.66
2023-03-13T16:55:36.969Z,8.64
2023-03-13T16:58:05.338Z,8.63
2023-03-13T17:00:33.568Z,8.60
2023-03-13T17:03:01.793Z,8.60
2023-03-13T17:05:30.414Z,8.58
2023-03-13T17:07:58.410Z,8.57
2023-03-13T17:10:29.977Z,8.55
2023-03-13T17:12:58.165Z,8.53
2023-03-13T17:15:28.351Z,8.49
2023-03-13T17:17:56.714Z,8.44
2023-03-13T17:20:30.282Z,8.39
2023-03-13T17:22:58.340Z,8.32
2023-03-13T17:25:26.562Z,8.25
2023-03-13T17:27:54.730Z,8.16
2023-03-13T17:30:28.590Z,8.07
2023-03-13T17:32:57.360Z,7.99
2023-03-13T17:35:25.427Z,7.91
2023-03-13T17:37:53.424Z,7.84
2023-03-13T17:40:24.344Z,7.76
2023-03-13T17:42:53.029Z,7.69
2023-03-13T17:45:21.156Z,7.61
2023-03-13T17:47:53.801Z,7.53
2023-03-13T17:50:27.149Z,7.47
2023-03-13T17:52:55.902Z,7.41
2023-03-13T17:55:24.542Z,7.37
2023-03-13T17:57:53.692Z,7.33
2023-03-13T18:00:21.647Z,7.31
2023-03-13T18:02:51.079Z,7.28
2023-03-13T18:05:19.112Z,7.28
2023-03-13T18:07:49.058Z,7.28
2023-03-13T18:10:25.207Z,7.28
2023-03-13T18:12:54.000Z,7.28
2023-03-13T18:15:24.113Z,7.26
2023-03-13T18:17:52.827Z,7.24
2023-03-13T18:20:26.891Z,7.23
2023-03-13T18:22:59.563Z,7.19
2023-03-13T18:25:29.013Z,7.16
2023-03-13T18:27:57.858Z,7.12
2023-03-13T18:30:27.043Z,7.10
2023-03-13T18:32:55.016Z,7.06
2023-03-13T18:35:23.117Z,7.03
2023-03-13T18:37:51.167Z,6.99
2023-03-13T18:40:21.750Z,6.95
2023-03-13T18:42:50.184Z,6.94
2023-03-13T18:45:21.454Z,6.92
2023-03-13T18:47:49.680Z,6.90
2023-03-13T18:50:27.551Z,6.86
2023-03-13T18:52:57.820Z,6.80
2023-03-13T18:55:28.192Z,6.73
2023-03-13T18:57:57.857Z,6.67
2023-03-13T19:00:29.166Z,6.63
2023-03-13T19:02:57.308Z,6.58
2023-03-13T19:05:25.255Z,6.52
2023-03-13T19:07:53.606Z,6.47
2023-03-13T19:10:26.693Z,6.44
2023-03-13T19:12:58.094Z,6.44
2023-03-13T19:15:30.237Z,6.45
2023-03-13T19:18:02.991Z,6.47
2023-03-13T19:20:31.385Z,6.49
2023-03-13T19:23:00.932Z,6.50
2023-03-13T19:25:30.637Z,6.50
2023-03-13T19:27:58.644Z,6.52
2023-03-13T19:30:26.906Z,6.58
2023-03-13T19:32:55.187Z,6.64
2023-03-13T19:35:23.272Z,6.69
2023-03-13T19:37:51.459Z,6.74
2023-03-13T19:40:22.256Z,6.78
2023-03-13T19:42:50.518Z,6.81
2023-03-13T19:45:20.544Z,6.83
2023-03-13T19:47:50.905Z,6.82
2023-03-13T19:50:21.712Z,6.82
2023-03-13T19:52:50.276Z,6.83
2023-03-13T19:55:22.469Z,6.84
2023-03-13T19:57:50.586Z,6.82
2023-03-13T20:00:22.409Z,6.81
2023-03-13T20:02:52.448Z,6.81
2023-03-13T20:05:21.215Z,6.84
2023-03-13T20:07:49.561Z,6.86
2023-03-13T20:10:18.057Z,6.87
2023-03-13T20:12:51.081Z,6.86
2023-03-13T20:15:20.680Z,6.84
2023-03-13T20:17:48.831Z,6.82
2023-03-13T20:20:17.441Z,6.80
2023-03-13T20:22:47.817Z,6.79
2023-03-13T20:25:29.164Z,6.77
2023-03-13T20:28:15.006Z,6.73
2023-03-13T20:30:48.598Z,6.70
2023-03-13T20:33:17.278Z,6.66
2023-03-13T20:35:47.687Z,6.64
2023-03-13T20:38:16.385Z,6.62
2023-03-13T20:40:54.419Z,6.61
2023-03-13T20:43:23.253Z,6.60
2023-03-13T20:45:56.072Z,6.58
2023-03-13T20:48:28.348Z,6.57
2023-03-13T20:51:00.786Z,6.55
2023-03-13T20:53:29.683Z,6.51
2023-03-13T20:55:58.036Z,6.47
2023-03-13T20:58:26.160Z,6.44
2023-03-13T21:00:58.968Z,6.40
2023-03-13T21:03:28.140Z,6.36
2023-03-13T21:05:56.265Z,6.33
2023-03-13T21:08:24.349Z,6.30
2023-03-13T21:10:57.718Z,6.29
2023-03-13T21:13:25.902Z,6.31
2023-03-13T21:16:01.968Z,6.34
2023-03-13T21:18:30.235Z,6.39
2023-03-13T21:21:10.214Z,6.45
2023-03-13T21:23:38.367Z,6.49
2023-03-13T21:26:07.980Z,6.51
2023-03-13T21:28:36.207Z,6.51
2023-03-13T21:31:13.401Z,6.51
2023-03-13T21:33:43.036Z,6.52
2023-03-13T21:36:13.100Z,6.51
2023-03-13T21:38:41.478Z,6.52
2023-03-13T21:41:11.719Z,6.53
2023-03-13T21:43:43.550Z,6.54
2023-03-13T21:46:14.196Z,6.53
2023-03-13T21:51:17.474Z,6.53
2023-03-13T21:53:45.631Z,6.52
2023-03-13T21:56:15.609Z,6.50
2023-03-13T21:58:45.551Z,6.49
2023-03-13T22:01:14.862Z,6.48
2023-03-13T22:03:43.226Z,6.46
2023-03-13T22:06:16.460Z,6.44
2023-03-13T22:08:45.298Z,6.44
2023-03-13T22:11:14.100Z,6.47
2023-03-13T22:13:43.049Z,6.49
2023-03-13T22:16:12.120Z,6.50
2023-03-13T22:18:41.903Z,6.52
2023-03-13T22:21:10.086Z,6.52
2023-03-13T22:23:38.291Z,6.53
2023-03-13T22:26:06.657Z,6.54
2023-03-13T22:28:34.617Z,6.59
2023-03-13T22:31:04.399Z,6.64
2023-03-13T22:33:33.610Z,6.66
2023-03-13T22:36:02.095Z,6.65
2023-03-13T22:38:30.100Z,6.63
2023-03-13T22:41:04.780Z,6.62
2023-03-13T22:43:32.948Z,6.60
2023-03-13T22:46:01.050Z,6.59
2023-03-13T22:48:29.001Z,6.57
2023-03-13T22:51:10.053Z,6.56
2023-03-13T22:53:40.402Z,6.51
2023-03-13T22:56:13.140Z,6.47
2023-03-13T22:58:56.854Z,6.44
2023-03-13T23:01:28.691Z,6.42
2023-03-13T23:03:59.998Z,6.40
2023-03-13T23:06:27.947Z,6.40
2023-03-13T23:08:55.820Z,6.40
2023-03-13T23:11:33.648Z,6.40
2023-03-13T23:14:01.575Z,6.42
2023-03-13T23:16:30.186Z,6.42
2023-03-13T23:18:58.195Z,6.43
2023-03-13T23:21:26.180Z,6.45
2023-03-13T23:23:54.882Z,6.48
2023-03-13T23:26:23.033Z,6.50
2023-03-13T23:28:50.961Z,6.52
2023-03-13T23:31:21.839Z,6.54
2023-03-13T23:33:50.092Z,6.56
2023-03-13T23:36:19.645Z,6.60
2023-03-13T23:38:53.275Z,6.62
2023-03-13T23:41:21.923Z,6.64
2023-03-13T23:43:50.002Z,6.63
2023-03-13T23:46:22.714Z,6.61
2023-03-13T23:48:58.543Z,6.60
2023-03-13T23:51:26.665Z,6.58
2023-03-13T23:53:54.712Z,6.56
2023-03-13T23:56:25.295Z,6.54
2023-03-13T23:58:54.678Z,6.51
